KSAF/SAF METAR and TAF weather

Enter ICAO airport designator
Station Type Date Time Source
KSAF METAR 2021/09/25 11:53 UTC NOAA

KSAF 251153Z AUTO 01004KT 10SM CLR 10/M01 A3031 RMK AO2 SLP171 T01001006 10178 20089 53007


Station Type Date Time Source
KSAF Decoded METAR 2021/09/25 11:53 UTC NOAA

SANTA FE COUNTY MUNICIPAL, NM, United States (KSAF) 35-37N 106-05W 1930M
Sep 25, 2021 - 07:53 AM EDT / 2021.09.25 1153 UTC
Wind: from the N (010 degrees) at 5 MPH (4 KT):0
Visibility: 10 mile(s):0
Sky conditions: clear
Temperature: 50.0 F (10.0 C)
Dew Point: 30.9 F (-0.6 C)
Relative Humidity: 47%
Pressure (altimeter): 30.31 in. Hg (1026 hPa)
Pressure tendency: 0.02 inches (0.7 hPa) higher than three hours ago
ob: KSAF 251153Z AUTO 01004KT 10SM CLR 10/M01 A3031 RMK AO2 SLP171 T01001006 10178 20089 53007
cycle: 12

Station Type Date Time Source
KSAF TAF 2021/09/25 12:42 UTC NOAA

TAF KSAF 251139Z 2512/2612 VRB06KT P6SM FEW250
FM251700 19008KT P6SM FEW120
FM252200 19012G20KT P6SM SCT110
FM260200 16006KT P6SM SCT080 BKN100
FM260700 01006KT P6SM SCT050 BKN080

Example: see airport list